• Join FlightAware (Why Join?)
  • Login
  • US Flag 
06:29AM EST


 

Airport Tracker/Info


-or-


 

Live Flight TrackerFlight Track Log ✈ AAY855 ✈ 15-Mar-2014 ✈ KSBN - KPIE

Flight Track Log - Related Links

Times and Time Zones

All times are in EDT time to prevent confusion due to time zone crossing. See the AAY855 flight status page for this flight to view local times or setup timezone preferences in your user account.

Time Position Orientation Groundspeed Altitude Reporting Facility
EDT Latitude Longitude Course Direction KTS MPH feet Rate Location/Type
05:59PM 41.6931 -86.4478 131° Southeast 220 253 4,400  Level Chicago Center
06:05PM 41.1759 -85.4913 131° Southeast  Level FlightAware Approximate
06:05PM 41.2461 -86.3387 172° South 393 452 17,300  Level FlightAware ADS-B (KMDW)
06:06PM 41.0823 -86.3042 171° South 406 467 20,300 2,400 Climbing FlightAware ADS-B (KMDW)
06:08PM 40.9489 -86.2759 171° South 392 451 23,500 2,280 Climbing FlightAware ADS-B
06:08PM 40.8595 -86.2575 171° South 409 471 24,800 1,260 Climbing FlightAware ADS-B
06:09PM 40.8054 -86.2464 171° South 425 489 25,300 1,080 Climbing FlightAware ADS-B
06:09PM 40.7250 -86.2296 171° South 429 494 26,100 1,260 Climbing FlightAware ADS-B
06:10PM 40.6685 -86.2161 166° South 441 507 26,700 1,320 Climbing FlightAware ADS-B
06:11PM 40.5842 -86.1797 161° South 453 521 27,700 1,320 Climbing FlightAware ADS-B
06:11PM 40.4986 -86.1418 161° South 457 526 28,700 1,260 Climbing FlightAware ADS-B
06:12PM 40.4067 -86.1013 162° South 460 529 29,700 1,200 Climbing FlightAware ADS-B
06:13PM 40.3516 -86.0773 162° South 464 534 30,200 900 Climbing FlightAware ADS-B
06:13PM 40.2749 -86.0440 162° South 469 540 30,600 960 Climbing FlightAware ADS-B
06:14PM 40.1818 -86.0025 158° South 476 548 31,400 1,140 Climbing FlightAware ADS-B
06:15PM 40.0912 -85.9426 152° Southeast 479 551 32,400 1,260 Climbing FlightAware ADS-B
06:15PM 40.0352 -85.9045 153° Southeast 479 551 33,000 1,260 Climbing FlightAware ADS-B
06:16PM 39.9725 -85.8619 153° Southeast 474 545 33,700 1,260 Climbing FlightAware ADS-B
06:16PM 39.9137 -85.8221 154° Southeast 471 542 34,300 1,080 Climbing FlightAware ADS-B
06:16PM 39.8868 -85.8085 165° South 460 529 34,500 780 Climbing FlightAware ADS-B
06:17PM 39.8229 -85.7954 173° South 451 519 34,900 480 Climbing FlightAware ADS-B
06:18PM 39.7672 -85.7864 173° South 450 518 35,000 60 Climbing FlightAware ADS-B
06:18PM 39.6984 -85.7747 173° South 452 520 35,000  Level FlightAware ADS-B
06:19PM 39.6289 -85.7627 172° South 452 520 35,000  Level FlightAware ADS-B (KBRY)
06:19PM 39.5684 -85.7522 173° South 451 519 35,000  Level FlightAware ADS-B
06:20PM 39.4492 -85.7320 173° South 454 522 35,000  Level FlightAware ADS-B
06:21PM 39.4199 -85.7271 173° South 454 522 35,000  Level FlightAware ADS-B (KBRY)
06:22PM 39.2551 -85.6990 173° South 452 520 35,000 120 Level FlightAware ADS-B (KBRY)
06:23PM 39.1323 -85.6780 173° South 456 525 35,300 720 Climbing FlightAware ADS-B (KBRY)
06:24PM 39.0108 -85.6577 173° South 447 514 36,400 840 Climbing FlightAware ADS-B (KCVG)
06:24PM 38.9221 -85.6432 173° South 453 521 36,700 360 Climbing FlightAware ADS-B (KCVG)
06:25PM 38.8454 -85.6302 172° South 454 522 37,000 180 Climbing FlightAware ADS-B (KCVG)
06:26PM 38.7368 -85.6118 173° South 452 520 37,000  Level FlightAware ADS-B (KBRY)
06:27PM 38.6346 -85.5947 173° South 449 517 37,000  Level FlightAware ADS-B (KCVG)
06:27PM 38.5676 -85.5837 173° South 452 520 37,000  Level FlightAware ADS-B (KCVG)
06:28PM 38.4330 -85.5615 173° South 453 521 37,000  Level FlightAware ADS-B (KBRY)
06:29PM 38.3627 -85.5499 173° South 449 517 37,000  Level FlightAware ADS-B
06:29PM 38.2871 -85.5372 173° South 451 519 37,000  Level FlightAware ADS-B (KBRY)
06:30PM 38.2110 -85.5245 173° South 451 519 37,000  Level FlightAware ADS-B
06:31PM 38.1470 -85.5139 173° South 450 518 37,000  Level FlightAware ADS-B (EHVB)
06:31PM 38.0616 -85.4998 173° South 452 520 37,000  Level FlightAware ADS-B
06:32PM 37.9689 -85.4847 173° South 454 522 37,000  Level FlightAware ADS-B
06:33PM 37.9023 -85.4738 173° South 456 525 37,000  Level FlightAware ADS-B
06:33PM 37.8290 -85.4618 173° South 454 522 37,000  Level FlightAware ADS-B
06:34PM 37.7388 -85.4471 173° South 454 522 37,000  Level FlightAware ADS-B
06:35PM 37.6463 -85.4321 173° South 451 519 37,000  Level FlightAware ADS-B
06:35PM 37.5573 -85.4176 173° South 451 519 37,000  Level FlightAware ADS-B
06:36PM 37.4967 -85.4077 173° South 452 520 37,000  Level FlightAware ADS-B
06:36PM 37.4219 -85.3956 173° South 450 518 37,000  Level FlightAware ADS-B
06:37PM 37.3606 -85.3856 173° South 453 521 37,000  Level FlightAware ADS-B (KBRY)
06:38PM 37.2621 -85.3697 173° South 456 525 37,000  Level FlightAware ADS-B
06:38PM 37.1970 -85.3592 173° South 456 525 37,000  Level FlightAware ADS-B
06:39PM 37.1087 -85.3449 173° South 454 522 37,000  Level FlightAware ADS-B (KBRY)
06:40PM 36.9552 -85.3206 173° South 461 531 37,000  Level FlightAware ADS-B (KBRY)
06:41PM 36.8015 -85.2957 173° South 448 516 37,000  Level FlightAware ADS-B (KBRY)
06:42PM 36.7187 -85.2828 173° South 449 517 37,000  Level FlightAware ADS-B
06:43PM 36.6838 -85.2772 173° South 445 512 37,000  Level FlightAware ADS-B
06:43PM 36.6838 -85.2772 173° South 442 509 37,000  Level FlightAware ADS-B
06:45PM 36.3257 -85.2209 173° South 451 519 37,000  Level FlightAware ADS-B (KBRY)
06:46PM 36.1875 -85.1993 173° South 452 520 37,000  Level FlightAware ADS-B (KBRY)
06:47PM 36.1376 -85.1915 173° South 457 526 37,000  Level FlightAware ADS-B (KBRY)
06:48PM 36.1376 -85.1915 173° South 461 531 37,000  Level FlightAware ADS-B (KBRY)
06:49PM 35.7902 -85.1371 173° South 459 528 37,000  Level FlightAware ADS-B (KMDQ)
06:50PM 35.7325 -85.1282 173° South 457 526 37,000  Level FlightAware ADS-B (KMDQ)
06:51PM 35.6145 -85.1099 173° South 456 525 37,000  Level FlightAware ADS-B (KMDQ)
06:52PM 35.5350 -85.0978 173° South 456 525 37,000  Level FlightAware ADS-B (KMDQ)
06:52PM 35.4696 -85.0876 173° South 456 525 37,000  Level FlightAware ADS-B (KMDQ)
06:53PM 35.4696 -85.0876 173° South 457 526 37,000  Level FlightAware ADS-B (KMDQ)
06:55PM 35.1503 -85.0389 173° South 457 526 37,000  Level FlightAware ADS-B (KMDQ)
06:55PM 35.0679 -85.0262 173° South 456 525 37,000  Level FlightAware ADS-B (KMDQ)
06:56PM 34.9920 -85.0148 173° South 454 522 37,000  Level FlightAware ADS-B (KMDQ)
06:56PM 34.8669 -84.9958 173° South 455 524 37,000 60 Level FlightAware ADS-B (KDZJ)
06:57PM 34.8425 -84.9921 173° South 456 525 37,100 360 Climbing FlightAware ADS-B (KMDQ)
06:58PM 34.8425 -84.9921 173° South 456 525 37,500 600 Climbing FlightAware ADS-B (KMDQ)
06:58PM 34.7105 -84.9720 173° South 456 525 37,900 480 Climbing FlightAware ADS-B (KMDQ)
06:59PM 34.7105 -84.9720 173° South 456 525 38,100 360 Climbing FlightAware ADS-B (KMDQ)
07:00PM 34.5632 -84.9499 173° South 456 525 38,500 420 Climbing FlightAware ADS-B (KMDQ)
07:01PM 34.3208 -84.9135 173° South 456 525 39,000 240 Climbing FlightAware ADS-B (KDZJ)
07:02PM 34.1947 -84.8948 173° South 451 519 39,000  Level FlightAware ADS-B (KDZJ)
07:02PM 34.1107 -84.8823 173° South 452 520 39,000  Level FlightAware ADS-B (KDZJ)
07:03PM 34.0250 -84.8695 173° South 453 521 39,000  Level FlightAware ADS-B (KDZJ)
07:04PM 33.9422 -84.8572 173° South 454 522 39,000  Level FlightAware ADS-B (KDZJ)
07:04PM 33.8554 -84.8443 173° South 454 522 39,000  Level FlightAware ADS-B (KDZJ)
07:05PM 33.7715 -84.8317 173° South 453 521 39,000  Level FlightAware ADS-B (KDZJ)
07:06PM 33.6826 -84.8187 173° South 450 518 39,000  Level FlightAware ADS-B (KDZJ)
07:07PM 33.5456 -84.8014 173° South 462 532 39,000  Level Atlanta Center
07:08PM 33.4206 -84.7831 173° South 462 532 39,000  Level Atlanta Center
07:09PM 33.2953 -84.7669 174° South 457 526 39,000  Level Atlanta Center
07:10PM 33.1681 -84.7511 174° South 457 526 39,000  Level Atlanta Center
07:11PM 33.0597 -84.7328 172° South 457 526 39,000  Level Atlanta Center
07:12PM 32.9344 -84.7144 173° South 457 526 39,000  Level Atlanta Center
07:13PM 32.8136 -84.6989 174° South 457 526 39,000  Level Atlanta Center
07:14PM 32.6925 -84.6781 172° South 452 520 39,000  Level Atlanta Center
07:15PM 32.5694 -84.6575 172° South 447 514 39,000  Level Atlanta Center
07:16PM 32.4444 -84.6419 174° South 447 514 39,100  Climbing Atlanta Center
07:22PM 31.7724 -84.5432 174° South 39,000 -60 Descending FlightAware ADS-B (KTLH)
07:22PM 31.6940 -84.5322 173° South 437 503 39,000  Level FlightAware ADS-B (KTLH)
07:25PM 31.3507 -84.4591 162° South 467 537 39,000  Level FlightAware ADS-B (KTLH)
07:26PM 31.2746 -84.4305 162° South 465 535 39,100 60 Climbing FlightAware ADS-B (KTLH)
07:27PM 31.1708 -84.3918 162° South 462 532 39,100 -120 Level FlightAware ADS-B (KTLH)
07:27PM 31.1083 -84.3683 162° South 459 528 39,000 -120 Descending FlightAware ADS-B (KTLH)
07:28PM 30.9700 -84.3166 162° South 455 524 39,000  Level FlightAware ADS-B (KTLH)
07:29PM 30.8741 -84.2809 162° South 457 526 39,000  Level FlightAware ADS-B (KTLH)
07:30PM 30.7568 -84.2376 162° South 462 532 39,000  Level FlightAware ADS-B (KTLH)
07:31PM 30.6902 -84.2131 163° South 465 535 39,000  Level FlightAware ADS-B (KTLH)
07:31PM 30.6262 -84.1896 162° South 470 541 39,000  Level FlightAware ADS-B (KTLH)
07:32PM 30.5619 -84.1659 162° South 472 543 39,000 60 Level FlightAware ADS-B (KTLH)
07:32PM 30.4974 -84.1421 162° South 473 544 39,100 60 Climbing FlightAware ADS-B (KTLH)
07:33PM 30.3810 -84.0993 162° South 471 542 39,100 -60 Level FlightAware ADS-B (KTLH)
07:34PM 30.2559 -84.0534 163° South 471 542 39,000 -120 Descending FlightAware ADS-B (KTLH)
07:35PM 30.1888 -84.0288 162° South 470 541 39,000  Level FlightAware ADS-B (KTLH)
07:35PM 30.1242 -84.0052 163° South 470 541 39,000  Level FlightAware ADS-B (KTLH)
07:36PM 30.0605 -83.9821 163° South 468 539 39,000 -660 Level FlightAware ADS-B (KTLH)
07:36PM 29.9744 -83.9507 163° South 470 541 38,200 -1,740 Descending FlightAware ADS-B (KTLH)
07:37PM 29.8966 -83.9224 162° South 467 537 37,000 -2,220 Descending FlightAware ADS-B (KTLH)
07:38PM 29.8103 -83.8875 162° South 462 532 35,500 -2,160 Descending FlightAware ADS-B (KTLH)
07:38PM 29.7565 -83.8534 150° Southeast 479 551 34,500 -1,260 Descending FlightAware ADS-B (KTLH)
07:39PM 29.6100 -83.7622 150° Southeast 474 545 33,300 -1,080 Descending Jacksonville Center
07:40PM 29.4936 -83.6847 150° Southeast 485 558 32,100 -1,680 Descending Jacksonville Center
07:41PM 29.3772 -83.6122 152° Southeast 485 558 30,000 -2,100 Descending Jacksonville Center
07:42PM 29.2650 -83.5400 151° Southeast 473 544 27,900 -2,100 Descending Jacksonville Center
07:43PM 29.1586 -83.4703 150° Southeast 462 532 25,900 -1,920 Descending Jacksonville Center
07:44PM 29.0483 -83.4008 151° Southeast 449 517 24,100 -1,860 Descending Jacksonville Center
07:45PM 28.9442 -83.3339 151° Southeast 444 511 22,200 -1,800 Descending Jacksonville Center
07:46PM 28.8444 -83.2719 151° Southeast 427 491 20,500 -1,740 Descending Jacksonville Center
07:47PM 28.7464 -83.2100 151° Southeast 416 479 18,800 -1,740 Descending Jacksonville Center
07:48PM 28.6547 -83.1528 151° Southeast 392 451 17,100 -1,680 Descending Jacksonville Center
07:49PM 28.6000 -83.1167 150° Southeast 369 425 16,200 -1,800 Descending Tampa TRACON
07:50PM 28.5167 -83.0667 152° Southeast 367 422 14,300 -1,740 Descending Tampa TRACON
07:51PM 28.4333 -83.0167 152° Southeast 364 419 12,900 -1,620 Descending Tampa TRACON
07:52PM 28.3333 -82.9667 156° South 333 383 11,100 -1,440 Descending Tampa TRACON
07:53PM 28.2667 -82.9333 156° South 320 368 10,100 -1,320 Descending Tampa TRACON
07:54PM 28.1667 -82.9167 172° South 293 337 8,500 -1,440 Descending Tampa TRACON
07:55PM 28.1000 -82.8833 156° South 278 320 7,200 -1,380 Descending Tampa TRACON
07:56PM 28.0333 -82.8667 168° South 266 306 5,800 -1,500 Descending Tampa TRACON
07:57PM 27.9667 -82.8500 168° South 251 289 4,300 -1,500 Descending Tampa TRACON
07:58PM 27.9000 -82.8167 156° South 247 284 2,800 -1,020 Descending Tampa TRACON
07:59PM 27.8500 -82.7667 139° Southeast 219 252 2,400 -780 Descending Tampa TRACON
08:00PM 27.8333 -82.7167 111° Southeast 178 205 1,400 -780 Descending Tampa TRACON
08:01PM 27.8500 -82.6833 61° Northeast 154 177 900 -600 Descending Tampa TRACON
08:02PM 27.9000 -82.6833 360° North 127 146 200 -720 Descending Tampa TRACON